createdAt,value
2019-01-15T00:00:27.304Z,3.60
2019-01-15T00:02:31.863Z,3.00
2019-01-15T00:04:36.227Z,3.43
2019-01-15T00:06:40.725Z,2.97
2019-01-15T00:08:45.225Z,2.60
2019-01-15T00:10:50.552Z,2.73
2019-01-15T00:12:55.085Z,3.37
2019-01-15T00:14:59.586Z,3.00
2019-01-15T00:17:03.955Z,3.00
2019-01-15T00:19:08.421Z,3.20
2019-01-15T00:21:13.009Z,3.40
2019-01-15T00:23:17.348Z,2.93
2019-01-15T00:25:21.785Z,3.03
2019-01-15T00:27:27.983Z,3.80
2019-01-15T00:29:32.340Z,3.50
2019-01-15T00:31:36.817Z,3.50
2019-01-15T00:33:41.247Z,2.60
2019-01-15T00:35:45.682Z,2.30
2019-01-15T00:37:51.748Z,2.87
2019-01-15T00:39:56.167Z,2.43
2019-01-15T00:42:00.736Z,2.90
2019-01-15T00:44:05.225Z,2.33
2019-01-15T00:46:09.808Z,3.40
2019-01-15T00:48:14.666Z,3.93
2019-01-15T00:50:20.779Z,2.87
2019-01-15T00:52:25.239Z,3.43
2019-01-15T00:54:29.647Z,3.27
2019-01-15T00:56:34.079Z,2.80
2019-01-15T00:58:38.873Z,3.40
2019-01-15T01:00:43.672Z,3.93
2019-01-15T01:02:48.524Z,3.20
2019-01-15T01:04:52.980Z,4.50
2019-01-15T01:06:59.331Z,3.63
2019-01-15T01:09:06.370Z,4.10
2019-01-15T01:11:14.135Z,3.60
2019-01-15T01:13:19.510Z,3.47
2019-01-15T01:15:24.303Z,3.40
2019-01-15T01:17:29.056Z,3.40
2019-01-15T01:19:33.483Z,3.50
2019-01-15T01:21:37.902Z,4.10
2019-01-15T01:23:42.327Z,3.90
2019-01-15T01:25:46.937Z,3.83
2019-01-15T01:27:51.642Z,4.70
2019-01-15T01:29:56.138Z,4.17
2019-01-15T01:32:00.486Z,4.30
2019-01-15T01:34:05.700Z,5.27
2019-01-15T01:36:10.171Z,4.30
2019-01-15T01:38:14.956Z,3.93
2019-01-15T01:40:21.161Z,3.53
2019-01-15T01:42:29.566Z,3.93
2019-01-15T01:44:32.002Z,5.13
2019-01-15T01:46:41.668Z,3.30
2019-01-15T01:48:46.427Z,4.60
2019-01-15T01:50:50.764Z,3.70
2019-01-15T01:52:55.249Z,4.33
2019-01-15T01:54:59.741Z,4.70
2019-01-15T01:57:04.422Z,4.60
2019-01-15T01:59:08.795Z,5.60
2019-01-15T02:01:15.171Z,6.30
2019-01-15T02:03:19.562Z,6.17
2019-01-15T02:05:23.944Z,7.17
2019-01-15T02:07:28.710Z,7.40
2019-01-15T02:09:35.343Z,7.87
2019-01-15T02:11:39.898Z,8.47
2019-01-15T02:13:44.840Z,7.07
2019-01-15T02:15:50.257Z,7.50
2019-01-15T02:17:57.581Z,6.47
2019-01-15T02:20:05.724Z,5.80
2019-01-15T02:22:10.514Z,6.40
2019-01-15T02:24:15.474Z,5.77
2019-01-15T02:26:21.202Z,6.40
2019-01-15T02:28:25.692Z,5.20
2019-01-15T02:30:30.057Z,5.00
2019-01-15T02:32:34.955Z,4.97
2019-01-15T02:34:41.401Z,5.60
2019-01-15T02:36:45.862Z,5.90
2019-01-15T02:38:51.088Z,6.40
2019-01-15T02:40:56.030Z,4.47
2019-01-15T02:43:00.728Z,6.03
2019-01-15T02:45:06.630Z,4.73
2019-01-15T02:47:11.331Z,5.60
2019-01-15T02:49:15.733Z,4.03
2019-01-15T02:51:22.854Z,5.53
2019-01-15T02:53:27.307Z,5.20
2019-01-15T02:55:31.672Z,5.50
2019-01-15T02:57:36.116Z,5.30
2019-01-15T02:59:40.557Z,4.77
2019-01-15T03:01:45.202Z,4.13
2019-01-15T03:03:49.781Z,4.70
2019-01-15T03:05:55.331Z,5.97
2019-01-15T03:07:59.825Z,6.80
2019-01-15T03:10:08.264Z,6.67
2019-01-15T03:12:12.608Z,11.30
2019-01-15T03:14:17.462Z,11.23
2019-01-15T03:16:23.587Z,11.10
2019-01-15T03:18:27.999Z,11.20
2019-01-15T03:20:32.474Z,13.50
2019-01-15T03:22:36.907Z,11.20
2019-01-15T03:24:41.302Z,9.73
2019-01-15T03:26:45.661Z,9.00
2019-01-15T03:28:50.040Z,8.57
2019-01-15T03:30:54.937Z,8.30
2019-01-15T03:32:59.367Z,8.00
2019-01-15T03:35:04.768Z,8.80
2019-01-15T03:37:09.935Z,7.80
2019-01-15T03:39:14.884Z,9.33
2019-01-15T03:41:19.482Z,9.70
2019-01-15T03:43:24.769Z,8.87
2019-01-15T03:45:29.811Z,10.90
2019-01-15T03:47:35.116Z,9.20
2019-01-15T03:49:39.620Z,9.50
2019-01-15T03:51:44.125Z,9.60
2019-01-15T03:53:48.694Z,9.60
2019-01-15T03:55:57.367Z,9.33
2019-01-15T03:58:01.839Z,10.00
2019-01-15T04:00:09.862Z,10.73
2019-01-15T04:02:17.791Z,10.10
2019-01-15T04:04:22.298Z,11.30
2019-01-15T04:06:26.777Z,9.10
2019-01-15T04:08:31.565Z,8.67
2019-01-15T04:10:35.943Z,12.50
2019-01-15T04:12:43.094Z,12.13
2019-01-15T04:14:47.555Z,11.90
2019-01-15T04:16:52.975Z,11.50
2019-01-15T04:18:59.321Z,12.57
2019-01-15T04:21:04.247Z,11.67
2019-01-15T04:23:08.754Z,9.70
2019-01-15T04:25:14.120Z,8.07
2019-01-15T04:27:18.654Z,8.90
2019-01-15T04:29:25.351Z,9.20
2019-01-15T04:31:29.873Z,8.90
2019-01-15T04:33:35.808Z,9.07
2019-01-15T04:35:40.321Z,11.80
2019-01-15T04:37:49.014Z,10.57
2019-01-15T04:39:53.873Z,10.97
2019-01-15T04:41:58.257Z,11.57
2019-01-15T04:44:07.174Z,12.47
2019-01-15T04:46:11.607Z,12.57
2019-01-15T04:48:16.073Z,13.57
2019-01-15T04:50:20.505Z,12.70
2019-01-15T04:52:25.483Z,12.83
2019-01-15T04:54:33.417Z,11.17
2019-01-15T04:56:38.415Z,11.67
2019-01-15T04:58:43.191Z,11.67
2019-01-15T05:00:47.563Z,10.23
2019-01-15T05:02:52.271Z,7.60
2019-01-15T05:04:56.663Z,8.80
2019-01-15T05:07:01.350Z,7.83
2019-01-15T05:09:08.067Z,6.60
2019-01-15T05:11:14.906Z,8.30
2019-01-15T05:13:19.248Z,7.27
2019-01-15T05:15:24.118Z,6.93
2019-01-15T05:17:28.530Z,7.53
2019-01-15T05:19:33.119Z,6.53
2019-01-15T05:21:37.635Z,7.47
2019-01-15T05:23:42.098Z,8.53
2019-01-15T05:25:46.486Z,8.23
2019-01-15T05:27:50.895Z,7.53
2019-01-15T05:29:55.340Z,8.10
2019-01-15T05:31:59.674Z,9.57
2019-01-15T05:34:04.399Z,10.97
2019-01-15T05:36:09.079Z,7.47
2019-01-15T05:38:13.452Z,8.77
2019-01-15T05:40:18.044Z,9.77
2019-01-15T05:42:22.483Z,8.87
2019-01-15T05:44:26.922Z,9.60
2019-01-15T05:46:32.327Z,9.40
2019-01-15T05:48:37.419Z,10.00
2019-01-15T05:51:00.575Z,10.17
2019-01-15T05:53:05.168Z,9.20
2019-01-15T05:55:09.953Z,10.10
2019-01-15T05:57:14.321Z,9.30
2019-01-15T05:59:20.716Z,12.23
2019-01-15T06:01:25.185Z,9.17
2019-01-15T06:03:29.608Z,10.40
2019-01-15T06:05:34.075Z,8.93
2019-01-15T06:07:38.530Z,9.67
2019-01-15T06:09:42.814Z,9.70
2019-01-15T06:11:47.176Z,10.43
2019-01-15T06:13:51.662Z,9.17
2019-01-15T06:15:59.216Z,9.00
2019-01-15T06:18:03.771Z,8.90
2019-01-15T06:20:12.153Z,8.23
2019-01-15T06:22:16.881Z,9.43
2019-01-15T06:24:24.465Z,9.00
2019-01-15T06:26:28.987Z,8.27
2019-01-15T06:28:33.622Z,8.53
2019-01-15T06:30:38.383Z,7.13
2019-01-15T06:32:42.841Z,7.47
2019-01-15T06:34:49.081Z,8.00
2019-01-15T06:36:53.520Z,7.43
2019-01-15T06:38:57.991Z,7.50
2019-01-15T06:41:03.145Z,7.53
2019-01-15T06:43:07.979Z,7.77
2019-01-15T06:45:15.409Z,10.40
2019-01-15T06:47:21.232Z,9.53
2019-01-15T06:49:28.172Z,9.07
2019-01-15T06:51:32.697Z,8.33
2019-01-15T06:53:37.545Z,10.50
2019-01-15T06:55:44.700Z,8.80
2019-01-15T06:57:49.633Z,8.40
2019-01-15T06:59:55.072Z,9.23
2019-01-15T07:01:59.636Z,8.90
2019-01-15T07:04:04.633Z,8.50
2019-01-15T07:06:09.100Z,8.07
2019-01-15T07:08:13.661Z,8.50
2019-01-15T07:10:21.032Z,8.70
2019-01-15T07:12:25.506Z,8.50
2019-01-15T07:14:30.085Z,8.47
2019-01-15T07:16:35.449Z,7.57
2019-01-15T07:18:39.873Z,9.27
2019-01-15T07:20:45.334Z,8.30
2019-01-15T07:22:51.040Z,10.33
2019-01-15T07:24:55.434Z,9.10
2019-01-15T07:26:59.857Z,9.63
2019-01-15T07:29:04.343Z,8.50
2019-01-15T07:31:08.889Z,10.73
2019-01-15T07:33:13.435Z,7.83
2019-01-15T07:35:17.979Z,9.60
2019-01-15T07:37:22.700Z,9.13
2019-01-15T07:39:27.303Z,8.13
2019-01-15T07:41:31.793Z,9.10
2019-01-15T07:43:36.426Z,8.67
2019-01-15T07:45:40.942Z,11.23
2019-01-15T07:47:48.423Z,7.43
2019-01-15T07:49:52.879Z,8.70
2019-01-15T07:52:00.387Z,10.10
2019-01-15T07:54:08.469Z,9.87
2019-01-15T07:56:14.052Z,10.13
2019-01-15T07:58:18.820Z,8.83
2019-01-15T08:00:23.561Z,10.10
2019-01-15T08:02:30.370Z,11.60
2019-01-15T08:04:37.550Z,10.33
2019-01-15T08:06:42.343Z,7.40
2019-01-15T08:08:46.683Z,9.93
2019-01-15T08:10:56.907Z,9.83
2019-01-15T08:12:57.669Z,11.07
2019-01-15T08:15:02.177Z,11.70
2019-01-15T08:17:06.676Z,11.17
2019-01-15T08:19:11.155Z,12.80
2019-01-15T08:21:16.793Z,11.20
2019-01-15T08:23:22.596Z,10.37
2019-01-15T08:25:27.115Z,9.57
2019-01-15T08:27:31.529Z,9.57
2019-01-15T08:29:36.126Z,12.07
2019-01-15T08:31:41.795Z,10.57
2019-01-15T08:33:49.925Z,12.53
2019-01-15T08:35:56.991Z,9.20
2019-01-15T08:38:01.491Z,11.40
2019-01-15T08:40:07.455Z,13.43
2019-01-15T08:42:11.832Z,11.40
2019-01-15T08:44:19.339Z,12.30
2019-01-15T08:46:24.369Z,10.83
2019-01-15T08:48:30.588Z,11.40
2019-01-15T08:50:35.645Z,11.17
2019-01-15T08:52:40.378Z,12.20
2019-01-15T08:54:47.571Z,12.53
2019-01-15T08:56:52.051Z,10.77
2019-01-15T08:58:56.431Z,13.57
2019-01-15T09:01:02.741Z,12.77
2019-01-15T09:03:07.173Z,11.00
2019-01-15T09:05:11.604Z,12.00
2019-01-15T09:07:15.949Z,13.10
2019-01-15T09:09:20.370Z,12.10
2019-01-15T09:11:24.772Z,14.50
2019-01-15T09:13:29.182Z,10.93
2019-01-15T09:15:34.740Z,11.50
2019-01-15T09:17:43.105Z,12.67
2019-01-15T09:19:47.848Z,12.60
2019-01-15T09:21:52.845Z,10.63
2019-01-15T09:23:57.516Z,10.83
2019-01-15T09:26:02.859Z,9.63
2019-01-15T09:28:07.280Z,11.83
2019-01-15T09:30:14.577Z,13.33
2019-01-15T09:32:21.687Z,11.87
2019-01-15T09:34:26.092Z,12.70
2019-01-15T09:36:30.484Z,11.10
2019-01-15T09:38:34.966Z,8.20
2019-01-15T09:40:39.526Z,11.07
2019-01-15T09:42:44.307Z,11.20
2019-01-15T09:44:49.719Z,13.40
2019-01-15T09:46:54.164Z,11.07
2019-01-15T09:48:58.589Z,10.00
2019-01-15T09:51:03.055Z,12.00
2019-01-15T09:53:12.268Z,12.53
2019-01-15T09:55:16.715Z,12.97
2019-01-15T09:57:21.195Z,14.70
2019-01-15T09:59:25.774Z,13.50
2019-01-15T10:01:30.874Z,13.10
2019-01-15T10:03:36.030Z,12.90
2019-01-15T10:05:41.005Z,14.20
2019-01-15T10:07:46.202Z,15.60
2019-01-15T10:09:55.963Z,13.43
2019-01-15T10:12:00.492Z,12.40
2019-01-15T10:14:05.309Z,12.83
2019-01-15T10:16:11.255Z,11.73
2019-01-15T10:18:16.134Z,11.67
2019-01-15T10:20:20.783Z,11.67
2019-01-15T10:22:25.663Z,10.80
2019-01-15T10:24:30.907Z,12.60
2019-01-15T10:26:38.587Z,12.87
2019-01-15T10:28:45.735Z,12.60
2019-01-15T10:31:17.098Z,11.77
2019-01-15T10:33:31.961Z,12.50
2019-01-15T10:36:03.669Z,11.40
2019-01-15T10:38:08.550Z,11.60
2019-01-15T10:40:14.824Z,11.60
2019-01-15T10:42:19.258Z,11.57
2019-01-15T10:44:23.690Z,13.03
2019-01-15T10:46:31.970Z,11.30
2019-01-15T10:48:34.196Z,10.60
2019-01-15T10:50:38.561Z,9.93
2019-01-15T10:52:45.519Z,9.00
2019-01-15T10:54:50.248Z,10.30
2019-01-15T10:56:54.578Z,8.57
2019-01-15T10:59:00.356Z,8.87
2019-01-15T11:01:08.542Z,7.07
2019-01-15T11:03:12.941Z,5.27
2019-01-15T11:05:17.505Z,6.77
2019-01-15T11:07:21.953Z,4.87
2019-01-15T11:09:27.706Z,6.00
2019-01-15T11:11:32.228Z,5.10
2019-01-15T11:13:39.599Z,5.00
2019-01-15T11:15:46.526Z,3.43
2019-01-15T11:17:50.881Z,4.47
2019-01-15T11:19:55.420Z,5.07
2019-01-15T11:22:00.157Z,3.73
2019-01-15T11:24:04.871Z,4.07
2019-01-15T11:26:09.836Z,3.30
2019-01-15T11:28:15.336Z,4.07
2019-01-15T11:30:19.842Z,4.23
2019-01-15T11:32:24.333Z,3.90
2019-01-15T11:34:28.762Z,3.70
2019-01-15T11:36:33.190Z,3.40
2019-01-15T11:38:37.629Z,3.73
2019-01-15T11:40:42.065Z,3.80
2019-01-15T11:42:47.858Z,4.57
2019-01-15T11:44:55.109Z,3.80
2019-01-15T11:46:59.617Z,3.93
2019-01-15T11:49:05.134Z,3.50
2019-01-15T11:51:09.986Z,3.63
2019-01-15T11:53:14.937Z,3.70
2019-01-15T11:55:21.314Z,2.83
2019-01-15T11:57:26.370Z,3.77
2019-01-15T11:59:31.866Z,3.30
2019-01-15T12:01:59.498Z,2.60
2019-01-15T12:04:22.556Z,2.83
2019-01-15T12:06:45.807Z,3.50
2019-01-15T12:09:07.628Z,3.07
2019-01-15T12:11:43.318Z,2.30
2019-01-15T12:14:09.493Z,2.07
2019-01-15T12:16:37.767Z,2.43
2019-01-15T12:19:00.181Z,2.23
2019-01-15T12:21:26.400Z,2.00
2019-01-15T12:23:43.945Z,1.23
2019-01-15T12:26:06.035Z,2.33
2019-01-15T12:28:35.613Z,1.80
2019-01-15T12:30:58.519Z,1.60
2019-01-15T12:33:21.581Z,1.77
2019-01-15T12:35:50.948Z,2.67
2019-01-15T12:38:14.260Z,2.70
2019-01-15T12:40:37.611Z,1.17
2019-01-15T12:43:01.570Z,2.10
2019-01-15T12:45:24.981Z,1.30
2019-01-15T12:47:51.165Z,3.00
2019-01-15T12:50:21.004Z,1.20
2019-01-15T12:52:50.401Z,1.70
2019-01-15T12:55:12.426Z,2.00
2019-01-15T12:57:39.641Z,1.73
2019-01-15T13:00:06.656Z,1.70
2019-01-15T13:02:31.934Z,2.20
2019-01-15T13:05:07.415Z,1.60
2019-01-15T13:07:33.635Z,1.90
2019-01-15T13:09:55.511Z,1.90
2019-01-15T13:12:21.832Z,1.87
2019-01-15T13:14:43.640Z,1.67
2019-01-15T13:17:18.673Z,2.10
2019-01-15T13:19:43.909Z,1.80
2019-01-15T13:22:24.254Z,2.30
2019-01-15T13:25:02.529Z,1.10
2019-01-15T13:27:17.370Z,2.13
2019-01-15T13:29:38.812Z,1.50
2019-01-15T13:32:01.471Z,2.10
2019-01-15T13:34:23.640Z,2.07
2019-01-15T13:36:59.319Z,2.30
2019-01-15T13:39:32.964Z,2.20
2019-01-15T13:41:54.600Z,1.70
2019-01-15T13:44:33.386Z,2.37
2019-01-15T13:46:57.631Z,3.60
2019-01-15T13:49:21.392Z,1.47
2019-01-15T13:51:49.880Z,2.03
2019-01-15T13:54:20.783Z,2.23
2019-01-15T13:56:46.115Z,2.43
2019-01-15T13:59:00.481Z,2.20
2019-01-15T14:01:29.937Z,2.63
2019-01-15T14:04:09.978Z,2.30
2019-01-15T14:06:31.809Z,1.77
2019-01-15T14:09:00.937Z,2.37
2019-01-15T14:11:25.377Z,3.93
2019-01-15T14:13:49.139Z,2.40
2019-01-15T14:16:15.678Z,2.10
2019-01-15T14:18:54.404Z,2.43
2019-01-15T14:21:24.042Z,1.97
2019-01-15T14:23:51.258Z,2.70
2019-01-15T14:26:33.299Z,2.23
2019-01-15T14:28:51.905Z,2.20
2019-01-15T14:31:30.377Z,1.43
2019-01-15T14:34:07.216Z,2.67
2019-01-15T14:36:29.130Z,2.20
2019-01-15T14:38:51.217Z,2.33
2019-01-15T14:41:15.785Z,2.90
2019-01-15T14:43:38.842Z,3.47
2019-01-15T14:46:14.175Z,3.20
2019-01-15T14:48:30.934Z,3.87
2019-01-15T14:50:56.000Z,4.93
2019-01-15T14:53:22.793Z,4.70
2019-01-15T14:55:56.825Z,6.03
2019-01-15T14:58:23.989Z,5.10
2019-01-15T15:00:57.024Z,4.83
2019-01-15T15:03:30.972Z,4.20
2019-01-15T15:06:01.984Z,5.73
2019-01-15T15:08:26.381Z,4.43
2019-01-15T15:10:53.194Z,4.73
2019-01-15T15:13:28.729Z,4.53
2019-01-15T15:15:50.862Z,3.47
2019-01-15T15:18:23.538Z,4.60
2019-01-15T15:20:50.957Z,6.90
2019-01-15T15:23:30.716Z,5.40
2019-01-15T15:25:42.158Z,4.63
2019-01-15T15:28:04.537Z,4.67
2019-01-15T15:30:29.300Z,4.47
2019-01-15T15:32:52.759Z,5.00
2019-01-15T15:35:17.063Z,5.67
2019-01-15T15:37:38.869Z,6.20
2019-01-15T15:40:08.491Z,4.90
2019-01-15T15:42:35.813Z,5.20
2019-01-15T15:45:15.567Z,4.20
2019-01-15T15:47:48.063Z,5.27
2019-01-15T15:50:05.015Z,5.27
2019-01-15T15:52:40.949Z,5.13
2019-01-15T15:54:58.583Z,6.63
2019-01-15T15:57:30.430Z,5.60
2019-01-15T15:59:59.963Z,4.77
2019-01-15T16:02:30.299Z,3.17
2019-01-15T16:04:56.953Z,5.20
2019-01-15T16:07:25.494Z,5.67
2019-01-15T16:09:50.512Z,6.57
2019-01-15T16:12:20.058Z,6.47
2019-01-15T16:14:31.116Z,5.43
2019-01-15T16:16:57.156Z,6.50
2019-01-15T16:19:23.886Z,6.20
2019-01-15T16:21:45.811Z,5.47
2019-01-15T16:24:15.404Z,5.30
2019-01-15T16:26:39.401Z,5.70
2019-01-15T16:29:15.072Z,5.27
2019-01-15T16:31:58.428Z,7.13
2019-01-15T16:34:23.411Z,5.83
2019-01-15T16:36:44.740Z,6.40
2019-01-15T16:39:13.160Z,7.40
2019-01-15T16:41:45.854Z,8.10
2019-01-15T16:44:18.628Z,6.40
2019-01-15T16:46:37.526Z,6.83
2019-01-15T16:49:01.582Z,6.70
2019-01-15T16:51:27.778Z,7.27
2019-01-15T16:53:43.646Z,9.07
2019-01-15T16:56:09.381Z,7.60
2019-01-15T16:58:31.879Z,5.90
2019-01-15T17:00:49.972Z,6.10
2019-01-15T17:03:25.840Z,6.83
2019-01-15T17:05:50.831Z,7.43
2019-01-15T17:08:13.090Z,5.93
2019-01-15T17:10:42.770Z,5.70
2019-01-15T17:13:06.604Z,5.10
2019-01-15T17:15:30.326Z,4.50
2019-01-15T17:17:45.420Z,4.97
2019-01-15T17:20:12.352Z,3.80
2019-01-15T17:22:51.001Z,4.00
2019-01-15T17:25:19.448Z,4.37
2019-01-15T17:27:55.346Z,4.97
2019-01-15T17:30:18.689Z,4.80
2019-01-15T17:33:00.442Z,4.83
2019-01-15T17:35:27.940Z,3.90
2019-01-15T17:37:55.582Z,4.27
2019-01-15T17:40:22.319Z,4.43
2019-01-15T17:42:36.766Z,4.57
2019-01-15T17:44:59.267Z,4.47
2019-01-15T17:47:21.225Z,3.97
2019-01-15T17:49:43.323Z,5.20
2019-01-15T17:52:06.203Z,4.10
2019-01-15T17:54:28.695Z,4.30
2019-01-15T17:56:44.284Z,4.70
2019-01-15T17:59:08.400Z,3.83
2019-01-15T18:01:35.362Z,3.63
2019-01-15T18:03:57.647Z,4.20
2019-01-15T18:06:20.423Z,3.97
2019-01-15T18:08:44.800Z,4.03
2019-01-15T18:11:06.583Z,3.63
2019-01-15T18:13:35.713Z,3.73
2019-01-15T18:15:52.566Z,4.47
2019-01-15T18:18:22.401Z,3.20
2019-01-15T18:21:01.190Z,4.43
2019-01-15T18:23:22.506Z,4.10
2019-01-15T18:25:56.577Z,3.80
2019-01-15T18:28:26.513Z,3.70
2019-01-15T18:31:01.838Z,4.27
2019-01-15T18:33:23.970Z,4.10
2019-01-15T18:36:02.359Z,5.23
2019-01-15T18:38:42.201Z,3.87
2019-01-15T18:41:00.755Z,3.90
2019-01-15T18:43:30.185Z,4.60
2019-01-15T18:45:52.235Z,4.97
2019-01-15T18:48:20.535Z,5.00
2019-01-15T18:50:43.253Z,4.87
2019-01-15T18:53:18.844Z,4.60
2019-01-15T18:55:42.555Z,6.77
2019-01-15T18:58:06.409Z,5.50
2019-01-15T19:00:34.176Z,4.90
2019-01-15T19:03:10.031Z,5.57
2019-01-15T19:05:37.085Z,4.10
2019-01-15T19:08:08.231Z,4.57
2019-01-15T19:10:49.567Z,4.20
2019-01-15T19:13:06.683Z,5.83
2019-01-15T19:15:37.175Z,4.50
2019-01-15T19:18:07.511Z,4.77
2019-01-15T19:20:23.398Z,4.70
2019-01-15T19:22:43.685Z,5.30
2019-01-15T19:25:12.922Z,5.53
2019-01-15T19:27:37.316Z,5.40
2019-01-15T19:30:16.313Z,6.00
2019-01-15T19:32:55.813Z,6.60
2019-01-15T19:35:20.039Z,6.00
2019-01-15T19:37:42.376Z,5.50
2019-01-15T19:40:05.176Z,6.40
2019-01-15T19:42:27.470Z,4.63
2019-01-15T19:44:56.640Z,4.50
2019-01-15T19:47:26.766Z,5.13
2019-01-15T19:49:49.298Z,4.47
2019-01-15T19:52:13.800Z,5.33
2019-01-15T19:54:42.822Z,4.43
2019-01-15T19:57:23.797Z,4.63
2019-01-15T19:59:50.139Z,4.77
2019-01-15T20:02:14.591Z,4.33
2019-01-15T20:04:53.265Z,4.43
2019-01-15T20:07:28.209Z,4.10
2019-01-15T20:09:49.035Z,4.90
2019-01-15T20:12:07.657Z,4.23
2019-01-15T20:14:48.484Z,4.73
2019-01-15T20:17:17.999Z,4.30
2019-01-15T20:19:35.745Z,4.53
2019-01-15T20:22:08.521Z,4.37
2019-01-15T20:24:41.386Z,4.17
2019-01-15T20:27:18.613Z,3.70
2019-01-15T20:29:42.952Z,4.23
2019-01-15T20:32:10.607Z,5.13
2019-01-15T20:34:33.615Z,4.63
2019-01-15T20:37:00.365Z,5.40
2019-01-15T20:39:27.128Z,4.80
2019-01-15T20:41:41.922Z,5.00
2019-01-15T20:44:05.859Z,4.57
2019-01-15T20:46:28.007Z,5.40
2019-01-15T20:48:51.709Z,6.10
2019-01-15T20:51:15.423Z,6.80
2019-01-15T20:53:51.133Z,6.47
2019-01-15T20:56:18.636Z,4.83
2019-01-15T20:58:40.654Z,4.97
2019-01-15T21:01:03.316Z,5.30
2019-01-15T21:03:36.172Z,3.93
2019-01-15T21:05:58.328Z,4.37
2019-01-15T21:08:32.708Z,5.30
2019-01-15T21:11:08.401Z,6.13
2019-01-15T21:13:24.262Z,4.73
2019-01-15T21:16:03.856Z,5.10
2019-01-15T21:18:32.728Z,5.50
2019-01-15T21:21:02.030Z,5.77
2019-01-15T21:23:27.912Z,6.30
2019-01-15T21:25:52.035Z,5.13
2019-01-15T21:28:21.706Z,3.60
2019-01-15T21:30:50.455Z,6.40
2019-01-15T21:33:08.529Z,5.70
2019-01-15T21:35:47.079Z,6.20
2019-01-15T21:38:30.892Z,7.00
2019-01-15T21:41:13.765Z,6.47
2019-01-15T21:43:31.245Z,6.10
2019-01-15T21:46:01.262Z,6.13
2019-01-15T21:48:24.456Z,6.63
2019-01-15T21:51:06.628Z,6.53
2019-01-15T21:53:48.703Z,5.10
2019-01-15T21:56:27.031Z,4.20
2019-01-15T21:58:53.069Z,7.10
2019-01-15T22:01:20.318Z,5.80
2019-01-15T22:03:45.701Z,5.30
2019-01-15T22:06:10.592Z,6.13
2019-01-15T22:08:39.614Z,4.93
2019-01-15T22:10:56.273Z,5.30
2019-01-15T22:13:19.030Z,5.60
2019-01-15T22:15:42.493Z,5.43
2019-01-15T22:18:18.040Z,4.67
2019-01-15T22:21:01.963Z,4.90
2019-01-15T22:23:23.685Z,4.87
2019-01-15T22:25:48.619Z,4.93
2019-01-15T22:28:25.532Z,6.20
2019-01-15T22:31:00.283Z,6.27
2019-01-15T22:33:42.162Z,4.87
2019-01-15T22:36:04.332Z,4.80
2019-01-15T22:38:41.615Z,4.60
2019-01-15T22:41:12.145Z,4.60
2019-01-15T22:43:31.982Z,4.80
2019-01-15T22:46:12.175Z,4.43
2019-01-15T22:48:34.276Z,4.80
2019-01-15T22:50:58.307Z,5.10
2019-01-15T22:53:28.300Z,4.17
2019-01-15T22:56:00.896Z,5.07
2019-01-15T22:58:30.055Z,3.90
2019-01-15T23:03:05.517Z,5.67
2019-01-15T23:05:43.563Z,5.50
2019-01-15T23:08:09.365Z,4.80
2019-01-15T23:10:36.714Z,4.90
2019-01-15T23:12:51.916Z,6.00
2019-01-15T23:15:17.732Z,4.77
2019-01-15T23:17:32.240Z,5.93
2019-01-15T23:19:57.590Z,5.80
2019-01-15T23:22:22.414Z,6.00
2019-01-15T23:24:44.297Z,5.53
2019-01-15T23:27:08.825Z,5.20
2019-01-15T23:29:36.493Z,4.53
2019-01-15T23:31:59.771Z,5.03
2019-01-15T23:34:24.862Z,4.83
2019-01-15T23:36:48.435Z,5.87
2019-01-15T23:39:09.006Z,5.80
2019-01-15T23:41:52.962Z,4.83
2019-01-15T23:44:28.877Z,5.27
2019-01-15T23:46:53.972Z,4.83
2019-01-15T23:49:22.392Z,5.50
2019-01-15T23:51:53.551Z,4.43
2019-01-15T23:54:25.734Z,4.93
2019-01-15T23:56:50.968Z,5.47
2019-01-15T23:59:31.336Z,5.57
